createdAt,value
2023-04-16T00:00:48.543Z,6.20
2023-04-16T00:03:31.822Z,6.40
2023-04-16T00:06:00.727Z,6.20
2023-04-16T00:08:28.639Z,6.10
2023-04-16T00:10:56.627Z,5.90
2023-04-16T00:13:26.251Z,5.90
2023-04-16T00:15:54.402Z,6.00
2023-04-16T00:18:22.431Z,6.00
2023-04-16T00:20:50.904Z,6.20
2023-04-16T00:23:19.000Z,6.20
2023-04-16T00:25:47.049Z,6.30
2023-04-16T00:28:14.958Z,5.70
2023-04-16T00:30:42.899Z,6.10
2023-04-16T00:33:10.967Z,6.10
2023-04-16T00:35:38.945Z,5.60
2023-04-16T00:38:06.942Z,5.50
2023-04-16T00:40:34.924Z,5.60
2023-04-16T00:43:02.896Z,5.20
2023-04-16T00:45:30.934Z,6.00
2023-04-16T00:48:00.838Z,6.10
2023-04-16T00:50:29.637Z,6.20
2023-04-16T00:52:58.345Z,6.60
2023-04-16T00:55:27.641Z,6.20
2023-04-16T00:57:55.687Z,5.90
2023-04-16T01:00:23.878Z,6.40
2023-04-16T01:02:53.737Z,5.80
2023-04-16T01:05:22.279Z,6.10
2023-04-16T01:07:51.347Z,5.60
2023-04-16T01:10:19.369Z,6.10
2023-04-16T01:12:47.323Z,5.60
2023-04-16T01:15:15.364Z,5.60
2023-04-16T01:17:46.284Z,5.60
2023-04-16T01:20:15.319Z,5.40
2023-04-16T01:22:43.503Z,5.00
2023-04-16T01:25:15.836Z,5.30
2023-04-16T01:27:43.878Z,5.50
2023-04-16T01:30:12.055Z,5.60
2023-04-16T01:32:51.696Z,4.40
2023-04-16T01:35:19.786Z,5.00
2023-04-16T01:37:50.314Z,5.10
2023-04-16T01:40:18.740Z,4.60
2023-04-16T01:42:46.807Z,4.20
2023-04-16T01:45:14.835Z,4.80
2023-04-16T01:47:42.952Z,5.00
2023-04-16T01:50:11.685Z,4.60
2023-04-16T01:52:39.874Z,4.70
2023-04-16T01:55:08.231Z,4.20
2023-04-16T01:57:36.291Z,4.30
2023-04-16T02:00:06.407Z,4.50
2023-04-16T02:02:35.570Z,4.00
2023-04-16T02:05:04.026Z,4.00
2023-04-16T02:07:32.118Z,4.10
2023-04-16T02:10:00.057Z,4.50
2023-04-16T02:12:29.920Z,3.90
2023-04-16T02:14:58.262Z,3.80
2023-04-16T02:17:28.141Z,3.30
2023-04-16T02:20:09.551Z,3.40
2023-04-16T02:22:40.995Z,3.20
2023-04-16T02:25:09.249Z,3.70
2023-04-16T02:27:37.547Z,3.70
2023-04-16T02:30:18.112Z,4.10
2023-04-16T02:32:46.198Z,3.70
2023-04-16T02:35:14.829Z,4.30
2023-04-16T02:37:43.002Z,3.90
2023-04-16T02:40:11.710Z,4.10
2023-04-16T02:42:39.757Z,3.80
2023-04-16T02:45:09.269Z,4.00
2023-04-16T02:47:37.449Z,3.90
2023-04-16T02:50:06.400Z,3.90
2023-04-16T02:52:34.480Z,3.60
2023-04-16T02:55:02.792Z,3.80
2023-04-16T02:57:30.848Z,3.40
2023-04-16T02:59:59.382Z,3.60
2023-04-16T03:02:27.581Z,3.50
2023-04-16T03:04:56.047Z,3.10
2023-04-16T03:07:24.524Z,3.40
2023-04-16T03:09:52.399Z,2.90
2023-04-16T03:12:20.457Z,3.20
2023-04-16T03:14:51.574Z,3.40
2023-04-16T03:19:47.661Z,4.30
2023-04-16T03:22:16.051Z,3.90
2023-04-16T03:24:44.016Z,3.90
2023-04-16T03:27:12.103Z,4.20
2023-04-16T03:29:40.171Z,4.00
2023-04-16T03:32:08.149Z,4.20
2023-04-16T03:34:37.112Z,4.30
2023-04-16T03:37:06.332Z,4.80
2023-04-16T03:39:34.860Z,4.90
2023-04-16T03:42:03.802Z,4.90
2023-04-16T03:44:31.693Z,4.20
2023-04-16T03:46:59.618Z,3.90
2023-04-16T03:49:27.863Z,4.20
2023-04-16T03:51:55.930Z,4.40
2023-04-16T03:54:23.999Z,4.20
2023-04-16T03:56:57.538Z,4.30
2023-04-16T03:59:25.835Z,4.50
2023-04-16T04:01:54.086Z,4.20
2023-04-16T04:04:22.369Z,4.70
2023-04-16T04:06:50.495Z,4.50
2023-04-16T04:09:18.609Z,4.00
2023-04-16T04:11:47.695Z,4.30
2023-04-16T04:14:15.830Z,3.90
2023-04-16T04:16:43.925Z,4.00
2023-04-16T04:19:12.245Z,3.60
2023-04-16T04:21:40.709Z,3.60
2023-04-16T04:24:10.493Z,3.70
2023-04-16T04:26:38.517Z,3.80
2023-04-16T04:29:06.658Z,4.20
2023-04-16T04:31:36.013Z,3.80
2023-04-16T04:34:04.297Z,4.50
2023-04-16T04:36:32.455Z,3.80
2023-04-16T04:39:02.045Z,3.60
2023-04-16T04:41:30.421Z,3.90
2023-04-16T04:43:58.378Z,3.50
2023-04-16T04:46:26.609Z,3.30
2023-04-16T04:48:54.664Z,3.60
2023-04-16T04:51:22.640Z,3.60
2023-04-16T04:53:50.560Z,3.40
2023-04-16T04:56:18.573Z,3.40
2023-04-16T04:58:46.636Z,3.40
2023-04-16T05:01:14.636Z,3.80
2023-04-16T05:03:42.757Z,3.60
2023-04-16T05:06:10.829Z,3.00
2023-04-16T05:08:38.818Z,3.10
2023-04-16T05:11:06.705Z,3.30
2023-04-16T05:13:34.658Z,3.20
2023-04-16T05:16:02.624Z,3.20
2023-04-16T05:18:31.221Z,3.40
2023-04-16T05:20:59.286Z,3.20
2023-04-16T05:23:27.274Z,3.30
2023-04-16T05:25:55.419Z,3.60
2023-04-16T05:28:23.482Z,3.70
2023-04-16T05:30:51.754Z,3.40
2023-04-16T05:33:19.801Z,3.90
2023-04-16T05:35:47.819Z,3.70
2023-04-16T05:38:15.884Z,3.60
2023-04-16T05:40:43.762Z,3.90
2023-04-16T05:43:11.736Z,4.80
2023-04-16T05:45:41.394Z,3.60
2023-04-16T05:48:10.170Z,2.60
2023-04-16T05:50:38.742Z,3.40
2023-04-16T05:53:08.572Z,3.30
2023-04-16T05:55:39.471Z,3.30
2023-04-16T05:58:07.490Z,3.90
2023-04-16T06:00:36.069Z,3.10
2023-04-16T06:03:04.624Z,3.90
2023-04-16T06:05:32.831Z,3.40
2023-04-16T06:08:01.170Z,4.00
2023-04-16T06:10:29.476Z,4.20
2023-04-16T06:12:57.404Z,4.30
2023-04-16T06:15:25.327Z,4.80
2023-04-16T06:17:54.924Z,3.80
2023-04-16T06:20:23.000Z,3.90
2023-04-16T06:22:51.096Z,3.50
2023-04-16T06:25:19.058Z,4.00
2023-04-16T06:27:47.080Z,3.20
2023-04-16T06:30:16.407Z,3.40
2023-04-16T06:32:44.852Z,3.10
2023-04-16T06:35:12.927Z,3.20
2023-04-16T06:37:41.533Z,2.70
2023-04-16T06:40:10.174Z,3.10
2023-04-16T06:42:38.371Z,2.80
2023-04-16T06:45:07.594Z,2.90
2023-04-16T06:47:35.818Z,2.70
2023-04-16T06:50:04.037Z,3.30
2023-04-16T06:52:32.145Z,3.70
2023-04-16T06:55:00.260Z,3.50
2023-04-16T06:57:28.183Z,3.10
2023-04-16T06:59:56.364Z,3.70
2023-04-16T07:02:24.556Z,2.80
2023-04-16T07:04:52.726Z,3.30
2023-04-16T07:07:20.788Z,2.80
2023-04-16T07:09:48.842Z,2.90
2023-04-16T07:12:16.960Z,3.30
2023-04-16T07:14:44.893Z,3.10
2023-04-16T07:17:12.812Z,2.90
2023-04-16T07:19:41.073Z,3.90
2023-04-16T07:22:08.949Z,3.40
2023-04-16T07:24:36.898Z,3.50
2023-04-16T07:27:04.866Z,3.50
2023-04-16T07:29:33.489Z,3.30
2023-04-16T07:32:01.712Z,3.40
2023-04-16T07:34:29.803Z,2.90
2023-04-16T07:36:57.565Z,3.00
2023-04-16T07:39:25.451Z,3.20
2023-04-16T07:41:53.289Z,3.50
2023-04-16T07:44:21.313Z,2.90
2023-04-16T07:46:49.172Z,2.80
2023-04-16T07:49:17.361Z,2.90
2023-04-16T07:51:45.480Z,2.70
2023-04-16T07:54:13.417Z,2.70
2023-04-16T07:56:41.397Z,3.20
2023-04-16T07:59:22.112Z,2.30
2023-04-16T08:01:53.968Z,2.40
2023-04-16T08:06:54.491Z,1.90
2023-04-16T08:09:24.343Z,2.20
2023-04-16T08:11:52.299Z,1.90
2023-04-16T08:14:20.389Z,2.30
2023-04-16T08:16:50.046Z,2.30
2023-04-16T08:19:18.202Z,2.50
2023-04-16T08:21:47.350Z,2.60
2023-04-16T08:24:15.693Z,2.50
2023-04-16T08:26:43.790Z,2.40
2023-04-16T08:29:11.962Z,2.60
2023-04-16T08:31:41.421Z,2.30
2023-04-16T08:34:11.564Z,2.90
2023-04-16T08:36:41.037Z,2.30
2023-04-16T08:39:09.611Z,3.00
2023-04-16T08:41:42.420Z,3.30
2023-04-16T08:44:19.885Z,2.60
2023-04-16T08:46:48.747Z,2.50
2023-04-16T08:49:18.338Z,2.70
2023-04-16T08:51:59.151Z,2.50
2023-04-16T08:54:32.675Z,2.40
2023-04-16T08:57:05.859Z,2.30
2023-04-16T08:59:34.731Z,2.40
2023-04-16T09:02:03.070Z,2.20
2023-04-16T09:04:32.701Z,2.50
2023-04-16T09:07:05.395Z,2.10
2023-04-16T09:09:34.699Z,1.90
2023-04-16T09:12:03.374Z,2.10
2023-04-16T09:14:31.306Z,1.90
2023-04-16T09:17:02.520Z,2.10
2023-04-16T09:19:30.743Z,1.90
2023-04-16T09:21:58.825Z,2.00
2023-04-16T09:24:27.133Z,2.00
2023-04-16T09:26:55.212Z,1.90
2023-04-16T09:29:43.475Z,2.00
2023-04-16T09:32:12.367Z,2.60
2023-04-16T09:35:00.676Z,2.20
2023-04-16T09:37:30.518Z,3.00
2023-04-16T09:40:00.852Z,2.00
2023-04-16T09:42:31.777Z,2.10
2023-04-16T09:45:03.327Z,1.70
2023-04-16T09:47:42.111Z,2.20
2023-04-16T09:50:18.749Z,1.80
2023-04-16T09:52:53.946Z,1.60
2023-04-16T09:55:27.798Z,1.60
2023-04-16T09:58:01.278Z,1.50
2023-04-16T10:00:31.513Z,1.90
2023-04-16T10:03:07.347Z,1.90
2023-04-16T10:05:37.066Z,1.80
2023-04-16T10:08:12.255Z,1.70
2023-04-16T10:10:43.617Z,1.50
2023-04-16T10:13:12.987Z,1.70
2023-04-16T10:15:42.093Z,1.90
2023-04-16T10:18:11.563Z,2.00
2023-04-16T10:20:39.759Z,2.10
2023-04-16T10:23:07.967Z,2.00
2023-04-16T10:25:36.610Z,2.10
2023-04-16T10:28:05.566Z,1.80
2023-04-16T10:30:33.963Z,2.00
2023-04-16T10:33:07.868Z,1.70
2023-04-16T10:35:40.555Z,2.00
2023-04-16T10:38:28.550Z,1.70
2023-04-16T10:41:02.223Z,1.90
2023-04-16T10:43:31.870Z,1.70
2023-04-16T10:46:32.985Z,1.40
2023-04-16T10:49:03.253Z,1.80
2023-04-16T10:51:34.632Z,1.80
2023-04-16T10:54:28.510Z,1.50
2023-04-16T10:57:04.446Z,1.80
2023-04-16T10:59:35.684Z,1.70
2023-04-16T11:02:16.607Z,1.80
2023-04-16T11:04:46.468Z,1.80
2023-04-16T11:07:32.192Z,1.80
2023-04-16T11:10:04.406Z,1.40
2023-04-16T11:12:37.920Z,1.70
2023-04-16T11:15:10.750Z,2.00
2023-04-16T11:17:43.064Z,1.80
2023-04-16T11:20:19.018Z,1.80
2023-04-16T11:22:53.735Z,1.70
2023-04-16T11:25:27.337Z,1.60
2023-04-16T11:27:57.069Z,1.90
2023-04-16T11:30:34.137Z,1.60
2023-04-16T11:33:03.838Z,1.90
2023-04-16T11:35:32.493Z,1.70
2023-04-16T11:38:00.690Z,1.60
2023-04-16T11:40:31.854Z,1.30
2023-04-16T11:43:12.632Z,1.40
2023-04-16T11:45:56.256Z,2.10
2023-04-16T11:48:24.528Z,1.70
2023-04-16T11:50:59.293Z,1.60
2023-04-16T11:53:27.344Z,1.70
2023-04-16T11:55:55.419Z,1.70
2023-04-16T11:58:23.659Z,1.80
2023-04-16T12:00:56.969Z,1.60
2023-04-16T12:03:46.186Z,1.70
2023-04-16T12:06:15.526Z,1.50
2023-04-16T12:08:43.498Z,1.40
2023-04-16T12:11:11.483Z,1.60
2023-04-16T12:13:40.314Z,1.40
2023-04-16T12:16:21.209Z,1.40
2023-04-16T12:19:01.720Z,1.50
2023-04-16T12:22:00.863Z,2.10
2023-04-16T12:24:32.353Z,1.60
2023-04-16T12:27:03.192Z,1.60
2023-04-16T12:29:31.996Z,1.30
2023-04-16T12:32:00.080Z,1.60
2023-04-16T12:34:48.525Z,1.80
2023-04-16T12:37:16.679Z,1.60
2023-04-16T12:39:45.477Z,1.30
2023-04-16T12:42:14.937Z,1.20
2023-04-16T12:44:42.939Z,1.90
2023-04-16T12:47:11.424Z,2.40
2023-04-16T12:49:39.463Z,2.00
2023-04-16T12:52:07.717Z,1.60
2023-04-16T12:54:35.805Z,1.60
2023-04-16T12:57:03.921Z,1.80
2023-04-16T12:59:31.997Z,1.90
2023-04-16T13:02:01.645Z,1.70
2023-04-16T13:04:30.095Z,1.90
2023-04-16T13:06:58.214Z,1.60
2023-04-16T13:09:27.104Z,1.60
2023-04-16T13:11:55.114Z,1.80
2023-04-16T13:14:23.110Z,1.50
2023-04-16T13:16:50.971Z,2.00
2023-04-16T13:19:19.362Z,2.30
2023-04-16T13:21:47.319Z,2.50
2023-04-16T13:24:15.568Z,2.00
2023-04-16T13:26:43.603Z,2.00
2023-04-16T13:29:11.908Z,2.10
2023-04-16T13:31:40.367Z,1.60
2023-04-16T13:34:08.269Z,1.60
2023-04-16T13:36:36.154Z,2.00
2023-04-16T13:39:05.427Z,1.80
2023-04-16T13:41:33.395Z,1.70
2023-04-16T13:44:01.311Z,1.50
2023-04-16T13:46:29.596Z,2.20
2023-04-16T13:48:57.818Z,1.70
2023-04-16T13:51:27.214Z,2.30
2023-04-16T13:53:57.982Z,1.90
2023-04-16T13:56:26.061Z,1.80
2023-04-16T13:58:54.068Z,1.90
2023-04-16T14:01:22.084Z,1.80
2023-04-16T14:03:50.196Z,1.70
2023-04-16T14:06:18.407Z,1.80
2023-04-16T14:08:46.423Z,1.90
2023-04-16T14:11:14.409Z,1.90
2023-04-16T14:13:42.352Z,2.00
2023-04-16T14:16:10.793Z,2.20
2023-04-16T14:18:42.485Z,2.10
2023-04-16T14:21:10.752Z,2.00
2023-04-16T14:23:38.715Z,1.90
2023-04-16T14:26:06.694Z,1.90
2023-04-16T14:28:35.865Z,1.80
2023-04-16T14:31:03.962Z,2.60
2023-04-16T14:33:32.382Z,1.80
2023-04-16T14:36:02.720Z,1.90
2023-04-16T14:38:32.097Z,2.80
2023-04-16T14:41:00.649Z,2.10
2023-04-16T14:43:28.916Z,2.40
2023-04-16T14:45:59.061Z,2.80
2023-04-16T14:48:27.038Z,2.50
2023-04-16T14:50:55.037Z,2.70
2023-04-16T14:53:24.527Z,2.70
2023-04-16T14:55:53.452Z,2.70
2023-04-16T14:58:22.012Z,2.70
2023-04-16T15:00:49.966Z,2.30
2023-04-16T15:03:18.188Z,2.30
2023-04-16T15:05:50.875Z,2.60
2023-04-16T15:08:18.772Z,2.70
2023-04-16T15:10:46.736Z,2.70
2023-04-16T15:13:14.779Z,2.70
2023-04-16T15:15:43.977Z,2.50
2023-04-16T15:18:12.151Z,2.20
2023-04-16T15:20:40.159Z,2.40
2023-04-16T15:23:08.241Z,2.80
2023-04-16T15:25:36.245Z,2.60
2023-04-16T15:28:04.527Z,2.00
2023-04-16T15:30:32.486Z,1.90
2023-04-16T15:33:00.784Z,2.00
2023-04-16T15:35:28.850Z,3.00
2023-04-16T15:37:56.919Z,3.40
2023-04-16T15:40:25.240Z,2.20
2023-04-16T15:42:56.023Z,2.20
2023-04-16T15:47:52.296Z,2.00
2023-04-16T15:50:20.987Z,2.20
2023-04-16T15:52:49.214Z,2.50
2023-04-16T15:55:18.270Z,2.40
2023-04-16T15:57:46.526Z,3.20
2023-04-16T16:00:17.214Z,4.30
2023-04-16T16:02:47.161Z,2.90
2023-04-16T16:05:17.004Z,2.60
2023-04-16T16:07:45.597Z,2.20
2023-04-16T16:10:13.708Z,2.20
2023-04-16T16:12:41.926Z,2.00
2023-04-16T16:15:11.314Z,2.40
2023-04-16T16:17:40.696Z,2.20
2023-04-16T16:20:10.849Z,2.10
2023-04-16T16:22:40.257Z,3.10
2023-04-16T16:25:10.247Z,2.50
2023-04-16T16:27:38.254Z,2.70
2023-04-16T16:30:07.743Z,2.10
2023-04-16T16:32:36.041Z,2.10
2023-04-16T16:35:04.441Z,2.20
2023-04-16T16:37:32.481Z,2.60
2023-04-16T16:40:00.770Z,2.40
2023-04-16T16:42:28.969Z,2.50
2023-04-16T16:44:57.629Z,3.00
2023-04-16T16:47:26.257Z,2.70
2023-04-16T16:49:54.837Z,2.70
2023-04-16T16:52:24.314Z,3.40
2023-04-16T16:54:56.913Z,4.10
2023-04-16T16:57:25.023Z,4.00
2023-04-16T16:59:54.484Z,3.60
2023-04-16T17:02:23.246Z,3.80
2023-04-16T17:04:52.802Z,3.40
2023-04-16T17:07:20.977Z,4.50
2023-04-16T17:09:48.889Z,5.00
2023-04-16T17:12:16.802Z,3.70
2023-04-16T17:14:44.796Z,3.00
2023-04-16T17:17:12.853Z,2.90
2023-04-16T17:19:40.821Z,3.10
2023-04-16T17:22:11.856Z,7.80
2023-04-16T17:24:39.827Z,7.60
2023-04-16T17:27:07.694Z,7.20
2023-04-16T17:29:35.968Z,5.30
2023-04-16T17:32:04.286Z,4.40
2023-04-16T17:34:32.196Z,4.20
2023-04-16T17:37:00.432Z,5.40
2023-04-16T17:39:28.383Z,4.70
2023-04-16T17:41:58.729Z,5.00
2023-04-16T17:44:28.034Z,5.20
2023-04-16T17:46:56.102Z,5.50
2023-04-16T17:49:24.133Z,5.70
2023-04-16T17:51:54.069Z,7.60
2023-04-16T17:54:21.997Z,7.90
2023-04-16T17:56:49.912Z,8.70
2023-04-16T17:59:17.843Z,7.90
2023-04-16T18:01:46.020Z,6.50
2023-04-16T18:04:14.328Z,6.70
2023-04-16T18:06:42.544Z,6.60
2023-04-16T18:09:10.666Z,7.40
2023-04-16T18:11:38.622Z,7.90
2023-04-16T18:14:06.540Z,7.60
2023-04-16T18:16:34.578Z,10.80
2023-04-16T18:19:02.517Z,14.90
2023-04-16T18:21:31.645Z,12.80
2023-04-16T18:24:01.066Z,12.00
2023-04-16T18:26:30.072Z,19.20
2023-04-16T18:29:06.815Z,21.90
2023-04-16T18:31:34.733Z,18.10
2023-04-16T18:34:03.046Z,15.70
2023-04-16T18:36:31.608Z,15.70
2023-04-16T18:39:02.123Z,13.40
2023-04-16T18:41:31.394Z,13.70
2023-04-16T18:43:59.442Z,14.50
2023-04-16T18:46:27.635Z,15.90
2023-04-16T18:48:56.035Z,13.70
2023-04-16T18:51:25.161Z,11.10
2023-04-16T18:53:53.212Z,8.60
2023-04-16T18:56:21.792Z,7.30
2023-04-16T18:58:49.696Z,6.80
2023-04-16T19:01:18.409Z,8.00
2023-04-16T19:03:46.519Z,8.60
2023-04-16T19:06:14.748Z,10.40
2023-04-16T19:08:42.613Z,11.30
2023-04-16T19:11:10.718Z,9.40
2023-04-16T19:13:39.441Z,9.80
2023-04-16T19:16:11.642Z,9.10
2023-04-16T19:18:39.943Z,9.80
2023-04-16T19:21:10.133Z,9.60
2023-04-16T19:23:38.167Z,9.70
2023-04-16T19:26:06.380Z,6.50
2023-04-16T19:28:34.351Z,6.40
2023-04-16T19:31:02.257Z,6.20
2023-04-16T19:33:31.439Z,6.10
2023-04-16T19:36:00.518Z,6.50
2023-04-16T19:38:29.177Z,6.30
2023-04-16T19:40:57.195Z,7.20
2023-04-16T19:43:25.444Z,7.20
2023-04-16T19:45:54.315Z,6.80
2023-04-16T19:48:22.468Z,8.00
2023-04-16T19:50:52.807Z,7.20
2023-04-16T19:53:21.631Z,11.60
2023-04-16T19:55:50.065Z,17.50
2023-04-16T19:58:21.324Z,18.30
2023-04-16T20:00:49.396Z,17.00
2023-04-16T20:03:18.188Z,17.00
2023-04-16T20:05:49.656Z,15.60
2023-04-16T20:08:17.730Z,10.70
2023-04-16T20:10:46.015Z,9.30
2023-04-16T20:13:16.097Z,11.40
2023-04-16T20:15:54.091Z,13.10
2023-04-16T20:18:25.982Z,12.10
2023-04-16T20:23:22.822Z,10.40
2023-04-16T20:25:52.336Z,8.60
2023-04-16T20:28:21.622Z,6.10
2023-04-16T20:30:52.113Z,5.90
2023-04-16T20:33:20.417Z,6.00
2023-04-16T20:35:49.238Z,5.70
2023-04-16T20:38:18.407Z,6.50
2023-04-16T20:40:47.275Z,6.90
2023-04-16T20:43:18.759Z,6.10
2023-04-16T20:45:46.983Z,5.70
2023-04-16T20:48:15.049Z,5.50
2023-04-16T20:50:43.159Z,7.00
2023-04-16T20:53:11.173Z,9.00
2023-04-16T20:55:39.206Z,9.90
2023-04-16T20:58:07.204Z,7.60
2023-04-16T21:00:35.320Z,8.50
2023-04-16T21:03:06.618Z,7.50
2023-04-16T21:05:34.722Z,6.90
2023-04-16T21:08:03.168Z,6.70
2023-04-16T21:10:32.582Z,6.80
2023-04-16T21:13:00.672Z,7.40
2023-04-16T21:15:28.665Z,6.20
2023-04-16T21:18:00.181Z,7.10
2023-04-16T21:20:30.641Z,7.70
2023-04-16T21:22:59.240Z,5.90
2023-04-16T21:25:27.354Z,3.60
2023-04-16T21:27:55.653Z,3.40
2023-04-16T21:30:23.716Z,3.90
2023-04-16T21:32:51.785Z,3.20
2023-04-16T21:35:19.900Z,3.50
2023-04-16T21:37:47.993Z,3.50
2023-04-16T21:40:16.241Z,4.00
2023-04-16T21:42:44.624Z,4.00
2023-04-16T21:45:14.628Z,3.80
2023-04-16T21:47:42.776Z,4.00
2023-04-16T21:50:11.963Z,3.80
2023-04-16T21:52:40.585Z,3.40
2023-04-16T21:55:09.953Z,3.10
2023-04-16T21:57:40.761Z,2.90
2023-04-16T22:00:13.761Z,2.40
2023-04-16T22:02:43.252Z,2.80
2023-04-16T22:05:11.762Z,2.00
2023-04-16T22:07:39.970Z,2.40
2023-04-16T22:10:09.149Z,2.20
2023-04-16T22:12:40.102Z,2.40
2023-04-16T22:15:09.217Z,2.20
2023-04-16T22:17:37.326Z,1.90
2023-04-16T22:20:09.419Z,2.30
2023-04-16T22:22:37.690Z,2.20
2023-04-16T22:25:06.366Z,2.40
2023-04-16T22:27:34.572Z,2.30
2023-04-16T22:30:03.980Z,2.40
2023-04-16T22:32:33.218Z,2.40
2023-04-16T22:35:02.144Z,2.40
2023-04-16T22:37:30.130Z,2.40
2023-04-16T22:39:58.235Z,2.10
2023-04-16T22:42:26.362Z,2.40
2023-04-16T22:44:54.352Z,2.20
2023-04-16T22:47:22.698Z,2.10
2023-04-16T22:49:50.945Z,2.30
2023-04-16T22:52:18.869Z,2.50
2023-04-16T22:54:46.875Z,2.10
2023-04-16T22:57:14.945Z,2.30
2023-04-16T22:59:42.893Z,2.30
2023-04-16T23:02:10.860Z,2.20
2023-04-16T23:04:38.786Z,2.00
2023-04-16T23:07:06.930Z,2.10
2023-04-16T23:09:34.969Z,2.40
2023-04-16T23:12:03.046Z,2.20
2023-04-16T23:14:31.622Z,2.20
2023-04-16T23:16:59.876Z,2.20
2023-04-16T23:19:27.974Z,2.50
2023-04-16T23:21:56.149Z,2.50
2023-04-16T23:24:24.327Z,2.40
2023-04-16T23:26:52.814Z,2.30
2023-04-16T23:29:21.006Z,2.20
2023-04-16T23:31:49.048Z,2.60
2023-04-16T23:34:17.006Z,3.00
2023-04-16T23:36:45.137Z,2.50
2023-04-16T23:39:13.276Z,2.40
2023-04-16T23:41:41.530Z,2.80
2023-04-16T23:44:09.616Z,2.80
2023-04-16T23:46:39.006Z,2.80
2023-04-16T23:49:07.067Z,2.60
2023-04-16T23:51:35.063Z,2.70
2023-04-16T23:54:03.116Z,2.70
2023-04-16T23:56:31.447Z,2.40
2023-04-16T23:58:59.467Z,2.20
